Time;durP1;ratioP1;P1;durP2;ratioP2;P2;SDS_P1;SDS_P2;PMS_P1;PMS_P2;Temp;Humidity;BMP_temperature;BMP_pressure;BME280_temperature;BME280_humidity;BME280_pressure;Samples;Min_cycle;Max_cycle;Signal;HPM_P1;HPM_P2
2022/01/13 00:01:57;;;;;;;58.67;21.23;;;6.00;99.90;;;;;;5085982;28;20193;-65
2022/01/13 00:04:23;;;;;;;51.77;19.70;;;5.80;99.90;;;;;;5073838;28;20216;-65
2022/01/13 00:06:50;;;;;;;55.30;20.47;;;5.80;99.90;;;;;;5055823;28;20182;-65
2022/01/13 00:09:17;;;;;;;41.10;17.47;;;5.80;99.90;;;;;;5062941;28;20622;-65
2022/01/13 00:11:45;;;;;;;49.70;20.20;;;5.90;99.90;;;;;;5092783;28;20205;-65
2022/01/13 00:15:08;;;;;;;50.43;19.17;;;5.80;99.90;;;;;;5071746;28;20283;-65
2022/01/13 00:24:53;;;;;;;50.47;17.87;;;6.00;99.90;;;;;;5086611;28;20243;-65
2022/01/13 00:27:22;;;;;;;52.53;19.83;;;5.90;99.90;;;;;;5058129;28;20216;-65
2022/01/13 00:29:48;;;;;;;60.77;18.33;;;5.70;99.90;;;;;;5050992;28;20189;-65
2022/01/13 00:32:15;;;;;;;50.60;19.93;;;5.70;99.90;;;;;;5073433;28;20272;-65
2022/01/13 00:34:41;;;;;;;44.53;19.83;;;5.70;99.90;;;;;;5029472;28;20206;-65
2022/01/13 00:37:07;;;;;;;56.40;20.37;;;5.80;99.90;;;;;;5031083;28;20202;-65
2022/01/13 00:39:33;;;;;;;45.10;19.00;;;5.80;99.90;;;;;;5014297;28;20202;-66
2022/01/13 00:41:58;;;;;;;43.37;18.50;;;5.60;99.90;;;;;;5029573;28;20193;-65
2022/01/13 00:44:24;;;;;;;54.90;20.07;;;5.70;99.90;;;;;;5040314;28;20237;-65
2022/01/13 00:46:58;;;;;;;51.50;18.13;;;5.60;99.90;;;;;;5022122;28;20190;-65
2022/01/13 00:49:24;;;;;;;43.83;18.87;;;5.60;99.90;;;;;;5033187;28;20228;-66
2022/01/13 00:51:50;;;;;;;42.93;17.83;;;5.70;99.90;;;;;;5033228;28;20252;-65
2022/01/13 00:54:16;;;;;;;44.90;18.13;;;5.70;99.90;;;;;;5050216;28;20722;-65
2022/01/13 00:56:45;;;;;;;57.47;20.40;;;5.80;99.90;;;;;;5033280;28;20285;-65
2022/01/13 00:59:14;;;;;;;53.13;17.90;;;5.60;99.90;;;;;;5050041;28;20286;-65
2022/01/13 01:01:42;;;;;;;48.23;17.07;;;5.70;99.90;;;;;;5032772;28;20200;-66
2022/01/13 01:04:08;;;;;;;55.77;18.27;;;5.90;99.90;;;;;;5049962;28;20218;-65
2022/01/13 01:06:35;;;;;;;47.20;18.70;;;5.90;99.90;;;;;;5086598;28;20203;-66
2022/01/13 01:09:02;;;;;;;49.23;19.70;;;5.90;99.90;;;;;;5080552;28;20181;-65
2022/01/13 01:11:28;;;;;;;46.23;17.63;;;5.90;99.90;;;;;;5079660;28;20197;-65
2022/01/13 01:13:55;;;;;;;47.03;16.67;;;5.80;99.90;;;;;;5088892;28;20173;-65
2022/01/13 01:16:21;;;;;;;46.67;18.30;;;5.60;99.90;;;;;;5077272;28;20185;-65
2022/01/13 01:26:31;;;;;;;45.57;18.30;;;5.70;99.90;;;;;;5087141;28;20185;-65
2022/01/13 01:29:12;;;;;;;53.43;18.10;;;5.50;99.90;;;;;;5076947;28;20181;-65
2022/01/13 01:31:44;;;;;;;48.00;20.17;;;5.90;99.90;;;;;;5076296;28;20812;-65
2022/01/13 01:36:43;;;;;;;58.93;21.90;;;5.90;99.90;;;;;;5055859;28;20208;-65
2022/01/13 01:39:10;;;;;;;52.90;21.17;;;5.60;99.90;;;;;;5091329;28;20569;-65
2022/01/13 01:41:39;;;;;;;59.57;22.90;;;5.40;99.90;;;;;;5077054;28;20275;-65
2022/01/13 01:44:09;;;;;;;57.07;22.13;;;5.30;99.90;;;;;;5095814;28;20185;-65
2022/01/13 01:46:35;;;;;;;51.70;18.97;;;5.10;99.90;;;;;;5060857;28;20276;-65
2022/01/13 01:49:14;;;;;;;57.20;21.37;;;5.10;99.90;;;;;;5095274;28;20189;-65
2022/01/13 01:51:40;;;;;;;51.77;21.47;;;5.10;99.90;;;;;;5066229;28;20192;-65
2022/01/13 01:54:06;;;;;;;57.57;22.17;;;5.10;99.90;;;;;;5095281;28;20188;-65
2022/01/13 01:56:31;;;;;;;53.47;22.30;;;5.20;99.90;;;;;;5093177;28;20212;-70
2022/01/13 01:59:01;;;;;;;51.40;22.67;;;5.20;99.90;;;;;;5068436;28;20212;-65
2022/01/13 02:01:27;;;;;;;47.93;21.83;;;5.20;99.90;;;;;;5069173;28;20301;-65
2022/01/13 02:03:53;;;;;;;51.20;22.50;;;5.30;99.90;;;;;;5094862;28;20238;-65
2022/01/13 02:06:19;;;;;;;47.83;19.50;;;5.30;99.90;;;;;;5095030;28;20645;-65
2022/01/13 02:08:45;;;;;;;51.90;21.13;;;5.30;99.90;;;;;;5084850;28;20216;-67
2022/01/13 02:11:11;;;;;;;52.07;20.30;;;5.30;99.90;;;;;;5081874;28;20200;-65
2022/01/13 02:13:44;;;;;;;52.53;22.10;;;5.30;99.90;;;;;;5084627;28;20196;-68
2022/01/13 02:16:35;;;;;;;47.50;19.33;;;5.20;99.90;;;;;;5077288;28;20192;-65
2022/01/13 02:18:57;;;;;;;51.50;22.50;;;5.40;99.90;;;;;;5075435;28;20540;-65
2022/01/13 02:21:26;;;;;;;46.60;19.27;;;5.40;99.90;;;;;;5085605;28;20654;-65
2022/01/13 02:23:54;;;;;;;51.07;21.13;;;5.40;99.90;;;;;;5094807;28;20204;-65
2022/01/13 02:26:21;;;;;;;53.10;22.23;;;5.50;99.90;;;;;;5093693;28;20177;-65
2022/01/13 02:28:47;;;;;;;52.23;21.33;;;5.60;99.90;;;;;;5086632;28;20189;-65
2022/01/13 02:31:13;;;;;;;44.97;19.40;;;5.50;99.90;;;;;;5057485;28;20178;-65
2022/01/13 02:33:40;;;;;;;49.23;22.63;;;5.50;99.90;;;;;;5070411;28;20189;-65
2022/01/13 02:36:07;;;;;;;51.60;21.17;;;5.50;99.90;;;;;;5093660;28;20717;-65
2022/01/13 02:38:33;;;;;;;57.17;21.73;;;5.40;99.90;;;;;;5085420;28;20180;-65
2022/01/13 02:41:00;;;;;;;58.87;22.17;;;5.40;99.90;;;;;;5094036;28;20582;-65
2022/01/13 02:43:29;;;;;;;59.97;23.17;;;5.40;99.90;;;;;;5094700;28;20181;-65
2022/01/13 02:46:08;;;;;;;60.07;21.97;;;5.40;99.90;;;;;;5067877;28;20217;-65
2022/01/13 02:48:35;;;;;;;55.20;21.93;;;5.40;99.90;;;;;;5075217;28;20208;-70
2022/01/13 02:51:02;;;;;;;53.63;22.30;;;5.50;99.90;;;;;;5075461;28;20185;-66
2022/01/13 02:53:28;;;;;;;58.77;21.00;;;5.50;99.90;;;;;;5084735;28;20268;-64
2022/01/13 02:56:00;;;;;;;61.70;21.57;;;5.50;99.90;;;;;;5081204;28;20184;-65
2022/01/13 02:58:26;;;;;;;51.77;20.70;;;5.50;99.90;;;;;;5087074;28;20886;-65
2022/01/13 03:00:51;;;;;;;56.80;22.73;;;5.50;99.90;;;;;;5048127;28;20180;-65
2022/01/13 03:03:19;;;;;;;66.17;24.07;;;5.40;99.90;;;;;;5059176;28;20200;-64
2022/01/13 03:05:44;;;;;;;50.77;19.00;;;5.50;99.90;;;;;;5092352;28;20212;-65
2022/01/13 03:08:11;;;;;;;51.70;21.37;;;5.50;99.90;;;;;;5074795;28;20180;-65
2022/01/13 03:10:37;;;;;;;49.13;18.63;;;5.60;99.90;;;;;;5075511;28;20188;-64
2022/01/13 03:13:03;;;;;;;73.90;21.57;;;5.50;99.90;;;;;;5064477;28;20317;-66
2022/01/13 03:15:29;;;;;;;57.13;20.17;;;5.40;99.90;;;;;;5093470;28;20243;-64
2022/01/13 03:17:55;;;;;;;54.87;20.30;;;5.40;99.90;;;;;;5075451;28;20582;-64
2022/01/13 03:20:21;;;;;;;45.90;20.27;;;5.50;99.90;;;;;;5063047;28;20626;-65
2022/01/13 03:22:46;;;;;;;52.30;21.00;;;5.50;99.90;;;;;;5062005;28;20580;-65
2022/01/13 03:25:14;;;;;;;62.67;21.67;;;5.50;99.90;;;;;;5087708;28;20666;-65
2022/01/13 03:27:41;;;;;;;48.33;21.03;;;5.30;99.90;;;;;;5062666;28;20534;-65
2022/01/13 03:30:09;;;;;;;53.87;20.80;;;5.50;99.90;;;;;;5094013;28;20279;-64
2022/01/13 03:32:36;;;;;;;67.83;23.50;;;5.40;99.90;;;;;;5093377;28;20528;-64
2022/01/13 03:35:04;;;;;;;55.93;21.00;;;5.40;99.90;;;;;;5082462;28;20185;-65
2022/01/13 03:37:30;;;;;;;48.13;19.27;;;5.50;99.90;;;;;;5074340;28;20225;-64
2022/01/13 03:39:58;;;;;;;65.03;21.73;;;5.50;99.90;;;;;;5093068;28;20181;-64
2022/01/13 03:42:27;;;;;;;53.17;18.07;;;5.50;99.90;;;;;;5058277;28;20207;-64
2022/01/13 03:44:54;;;;;;;62.87;21.70;;;5.50;99.90;;;;;;5073983;28;20209;-64
2022/01/13 03:47:20;;;;;;;56.97;20.83;;;5.50;99.90;;;;;;5067235;28;20181;-65
2022/01/13 03:49:46;;;;;;;50.90;21.87;;;5.40;99.90;;;;;;5068802;28;20218;-65
2022/01/13 03:52:24;;;;;;;56.80;21.13;;;5.30;99.90;;;;;;5089995;28;20634;-65
2022/01/13 03:55:34;;;;;;;61.60;20.60;;;5.40;99.90;;;;;;5055976;28;20218;-64
2022/01/13 03:58:28;;;;;;;61.27;22.93;;;5.40;99.90;;;;;;5076072;28;20187;-64
2022/01/13 04:01:31;;;;;;;62.77;24.57;;;5.60;99.90;;;;;;5092832;28;20230;-64
2022/01/13 04:03:57;;;;;;;59.37;21.43;;;5.60;99.90;;;;;;5088696;28;20611;-67
2022/01/13 04:06:42;;;;;;;54.13;22.07;;;5.40;99.90;;;;;;5073410;28;20205;-64
2022/01/13 04:09:24;;;;;;;63.13;21.97;;;5.00;99.90;;;;;;5087720;28;20275;-64
2022/01/13 04:11:51;;;;;;;60.20;19.83;;;4.70;99.90;;;;;;5085041;28;20279;-64
2022/01/13 04:14:26;;;;;;;63.77;23.47;;;4.50;99.90;;;;;;5071507;28;20281;-64
2022/01/13 04:16:52;;;;;;;57.40;21.53;;;4.40;99.90;;;;;;5063281;28;20192;-65
2022/01/13 04:19:18;;;;;;;57.00;21.23;;;4.50;99.90;;;;;;5073826;28;20184;-64
2022/01/13 04:21:43;;;;;;;60.60;24.27;;;4.60;99.90;;;;;;5092084;28;20184;-65
2022/01/13 04:24:13;;;;;;;64.37;20.67;;;4.70;99.90;;;;;;5092543;28;20179;-64
2022/01/13 04:26:42;;;;;;;58.30;22.50;;;4.80;99.90;;;;;;5093425;28;20168;-64
2022/01/13 04:31:41;;;;;;;67.77;24.47;;;4.80;99.90;;;;;;5087555;28;20657;-64
2022/01/13 04:34:07;;;;;;;60.20;21.17;;;4.90;99.90;;;;;;5087660;28;20246;-64
2022/01/13 04:36:32;;;;;;;52.97;20.07;;;5.10;99.90;;;;;;5077249;28;20654;-64
2022/01/13 04:38:58;;;;;;;63.10;21.17;;;5.20;99.90;;;;;;5057366;28;20204;-64
2022/01/13 04:41:38;;;;;;;63.33;23.80;;;5.20;99.90;;;;;;5072554;28;20204;-64
2022/01/13 04:44:08;;;;;;;65.33;23.10;;;5.00;99.90;;;;;;5075375;28;20173;-64
2022/01/13 04:46:34;;;;;;;66.47;23.03;;;4.90;99.90;;;;;;5074518;28;20177;-64
2022/01/13 04:49:00;;;;;;;71.13;23.57;;;4.80;99.90;;;;;;5091794;28;20549;-64
2022/01/13 04:51:27;;;;;;;70.83;22.40;;;4.70;99.90;;;;;;5093220;28;20187;-64
2022/01/13 04:53:53;;;;;;;66.30;22.67;;;4.50;99.90;;;;;;5074765;28;20241;-65
2022/01/13 04:56:29;;;;;;;56.23;20.60;;;4.70;99.90;;;;;;5073399;28;20603;-64
2022/01/13 04:58:55;;;;;;;57.00;21.87;;;4.70;99.90;;;;;;5087182;28;20204;-64
2022/01/13 05:01:20;;;;;;;67.03;21.73;;;4.70;99.90;;;;;;5086015;28;20188;-65
2022/01/13 05:03:46;;;;;;;45.97;21.83;;;4.70;99.90;;;;;;5092481;28;20707;-64
2022/01/13 05:06:19;;;;;;;62.47;20.60;;;4.80;99.90;;;;;;5074142;28;20250;-64
2022/01/13 05:08:46;;;;;;;66.50;23.67;;;4.80;99.90;;;;;;5060533;28;20188;-64
2022/01/13 05:11:11;;;;;;;50.60;19.57;;;4.90;99.90;;;;;;5066428;28;20205;-64
2022/01/13 05:13:37;;;;;;;53.57;20.93;;;5.00;99.90;;;;;;5091951;28;20206;-65
2022/01/13 05:16:03;;;;;;;65.00;23.17;;;5.10;99.90;;;;;;5073916;28;20212;-67
2022/01/13 05:18:44;;;;;;;63.20;22.03;;;5.00;99.90;;;;;;5075800;28;20196;-64
2022/01/13 05:21:20;;;;;;;67.03;22.07;;;5.00;99.90;;;;;;5071337;28;20188;-64
2022/01/13 05:23:46;;;;;;;61.10;22.70;;;5.20;99.90;;;;;;5041554;28;20197;-65
2022/01/13 05:26:12;;;;;;;62.30;21.33;;;5.30;99.90;;;;;;5070506;28;20610;-65
2022/01/13 05:28:40;;;;;;;62.13;23.40;;;5.40;99.90;;;;;;5074993;28;20648;-65
2022/01/13 05:31:06;;;;;;;57.97;22.70;;;5.40;99.90;;;;;;5069783;28;20192;-64
2022/01/13 05:33:32;;;;;;;55.57;21.00;;;5.20;99.90;;;;;;5088904;28;20180;-66
2022/01/13 05:35:58;;;;;;;74.90;26.00;;;5.00;99.90;;;;;;5092301;28;20264;-66
2022/01/13 05:38:24;;;;;;;62.07;22.20;;;5.10;99.90;;;;;;5091775;28;20189;-66
2022/01/13 05:40:50;;;;;;;62.57;22.97;;;5.10;99.90;;;;;;5087919;28;20181;-62
2022/01/13 05:43:15;;;;;;;64.17;23.17;;;4.90;99.90;;;;;;5082188;28;20191;-63
2022/01/13 05:45:41;;;;;;;62.67;22.00;;;5.10;99.90;;;;;;5084170;28;20216;-64
2022/01/13 05:48:07;;;;;;;52.03;21.53;;;5.00;99.90;;;;;;5073323;28;20189;-66
2022/01/13 05:50:34;;;;;;;53.23;19.63;;;4.90;99.90;;;;;;5091682;28;20234;-65
2022/01/13 05:53:00;;;;;;;67.67;24.63;;;4.90;99.90;;;;;;5073306;28;20506;-65
2022/01/13 05:55:26;;;;;;;67.53;21.47;;;4.90;99.90;;;;;;5086101;28;20192;-66
2022/01/13 05:57:52;;;;;;;62.43;22.43;;;4.80;99.90;;;;;;5088558;28;20177;-66
2022/01/13 06:00:20;;;;;;;63.20;23.07;;;4.70;99.90;;;;;;5059324;28;20190;-66
2022/01/13 06:02:46;;;;;;;67.20;23.20;;;4.50;99.90;;;;;;5088365;28;20665;-66
2022/01/13 06:05:12;;;;;;;55.27;21.97;;;4.50;99.90;;;;;;5088856;28;20217;-66
2022/01/13 06:07:38;;;;;;;69.27;23.60;;;4.70;99.90;;;;;;5059535;28;20280;-67
2022/01/13 06:10:06;;;;;;;68.50;23.83;;;4.60;99.90;;;;;;5057865;28;20281;-66
2022/01/13 06:12:37;;;;;;;68.33;24.27;;;4.70;99.90;;;;;;5092322;28;20585;-69
2022/01/13 06:15:13;;;;;;;70.10;23.17;;;4.60;99.90;;;;;;5077681;28;20185;-66
2022/01/13 06:17:41;;;;;;;65.90;24.13;;;4.70;99.90;;;;;;5077389;28;20250;-66
2022/01/13 06:20:09;;;;;;;62.23;21.67;;;4.70;99.90;;;;;;5080808;28;20196;-67
2022/01/13 06:22:36;;;;;;;68.67;22.57;;;4.70;99.90;;;;;;5075766;28;20645;-64
2022/01/13 06:25:04;;;;;;;71.20;23.53;;;4.80;99.90;;;;;;5081400;28;20214;-65
2022/01/13 06:27:30;;;;;;;70.43;23.07;;;4.60;99.90;;;;;;5077097;28;20193;-66
2022/01/13 06:29:55;;;;;;;63.37;23.27;;;4.70;99.90;;;;;;5060042;28;20185;-66
2022/01/13 06:32:22;;;;;;;58.37;21.20;;;4.60;99.90;;;;;;5075865;28;20216;-67
2022/01/13 06:34:51;;;;;;;49.57;21.23;;;4.60;99.90;;;;;;5082170;28;20193;-65
2022/01/13 06:37:18;;;;;;;58.27;21.10;;;4.70;99.90;;;;;;5076960;28;20190;-65
2022/01/13 06:39:44;;;;;;;57.53;18.67;;;4.80;99.90;;;;;;5093773;28;20218;-66
2022/01/13 06:42:10;;;;;;;60.90;23.43;;;4.70;99.90;;;;;;5091274;28;20185;-66
2022/01/13 06:44:36;;;;;;;57.73;21.13;;;4.70;99.90;;;;;;5091946;28;20216;-66
2022/01/13 06:47:03;;;;;;;57.23;22.83;;;4.60;99.90;;;;;;5043028;28;20232;-71
2022/01/13 06:49:28;;;;;;;62.00;22.33;;;4.70;99.90;;;;;;5091932;28;20272;-66
2022/01/13 06:51:54;;;;;;;56.67;19.43;;;4.80;99.90;;;;;;5068396;28;20272;-69
2022/01/13 06:54:20;;;;;;;49.13;19.53;;;4.80;99.90;;;;;;5073396;28;20185;-65
2022/01/13 06:56:45;;;;;;;54.17;18.27;;;4.70;99.90;;;;;;5065078;28;20851;-65
2022/01/13 06:59:13;;;;;;;44.67;21.10;;;4.70;99.90;;;;;;5056813;28;20657;-65
2022/01/13 07:01:40;;;;;;;52.20;18.90;;;5.00;99.90;;;;;;5089464;28;20181;-65
2022/01/13 07:04:12;;;;;;;51.23;19.90;;;4.80;99.90;;;;;;5085613;28;20630;-65
2022/01/13 07:06:38;;;;;;;65.93;21.47;;;4.80;99.90;;;;;;5076404;28;20625;-65
2022/01/13 07:09:10;;;;;;;65.57;23.97;;;4.60;99.90;;;;;;5059526;28;20179;-65
2022/01/13 07:11:37;;;;;;;63.83;23.87;;;4.40;99.90;;;;;;5091618;28;20204;-65
2022/01/13 07:14:03;;;;;;;67.70;25.47;;;4.30;99.90;;;;;;5066360;28;20260;-64
2022/01/13 07:16:29;;;;;;;65.47;22.97;;;4.20;99.90;;;;;;5056932;28;20514;-68
2022/01/13 07:18:55;;;;;;;67.23;23.97;;;4.10;99.90;;;;;;5085754;28;20289;-66
2022/01/13 07:21:24;;;;;;;66.40;25.07;;;4.00;99.90;;;;;;5075831;28;20575;-65
2022/01/13 07:23:50;;;;;;;57.80;20.43;;;4.00;99.90;;;;;;5093519;28;20245;-65
2022/01/13 07:26:16;;;;;;;58.30;21.70;;;4.00;99.90;;;;;;5080767;28;20197;-65
2022/01/13 07:28:41;;;;;;;56.17;21.17;;;3.90;99.90;;;;;;5071306;28;20550;-66
2022/01/13 07:31:07;;;;;;;60.30;20.57;;;3.80;99.90;;;;;;5075966;28;20202;-65
2022/01/13 07:33:33;;;;;;;55.27;20.50;;;3.80;99.90;;;;;;5075956;28;20268;-65
2022/01/13 07:35:58;;;;;;;57.47;20.17;;;3.90;99.90;;;;;;5059117;28;20181;-65
2022/01/13 07:38:24;;;;;;;52.17;21.70;;;3.80;99.90;;;;;;5071330;28;20181;-65
2022/01/13 07:40:50;;;;;;;56.77;20.43;;;3.90;99.90;;;;;;5063634;28;20188;-65
2022/01/13 07:43:23;;;;;;;63.30;22.00;;;3.90;99.90;;;;;;5058739;28;20652;-65
2022/01/13 07:45:53;;;;;;;50.53;19.83;;;4.00;99.90;;;;;;5093839;28;20207;-65
2022/01/13 07:48:20;;;;;;;54.63;20.10;;;4.10;99.90;;;;;;5071904;28;20228;-65
2022/01/13 07:50:47;;;;;;;56.50;21.80;;;4.10;99.90;;;;;;5059778;28;20185;-65
2022/01/13 07:53:12;;;;;;;46.97;18.57;;;4.10;99.90;;;;;;5093411;28;20183;-68
2022/01/13 07:55:38;;;;;;;51.90;20.13;;;4.20;99.90;;;;;;5081709;28;20553;-66
2022/01/13 07:58:04;;;;;;;58.13;21.23;;;4.10;99.90;;;;;;5056052;28;20661;-65
2022/01/13 08:00:30;;;;;;;64.03;21.73;;;4.10;99.90;;;;;;5085930;28;20185;-69
2022/01/13 08:02:55;;;;;;;43.77;19.40;;;4.10;99.90;;;;;;5093956;28;20185;-66
2022/01/13 08:05:21;;;;;;;53.97;20.27;;;4.00;99.90;;;;;;5092224;28;20211;-66
2022/01/13 08:07:47;;;;;;;58.10;20.67;;;3.90;99.90;;;;;;5073433;28;20557;-66
2022/01/13 08:10:13;;;;;;;54.97;20.40;;;4.10;99.90;;;;;;5056761;28;20192;-65
2022/01/13 08:12:39;;;;;;;52.87;20.63;;;4.20;99.90;;;;;;5087048;28;20280;-65
2022/01/13 08:15:13;;;;;;;52.73;19.67;;;4.20;99.90;;;;;;5061118;28;20191;-66
2022/01/13 08:20:27;;;;;;;64.43;22.03;;;4.40;99.90;;;;;;5078255;28;20277;-65
2022/01/13 08:22:53;;;;;;;52.27;21.20;;;4.50;99.90;;;;;;5073343;28;20184;-65
2022/01/13 08:25:21;;;;;;;57.03;20.50;;;4.50;99.90;;;;;;5073064;28;20257;-66
2022/01/13 08:27:46;;;;;;;56.77;19.93;;;4.50;99.90;;;;;;5092864;28;20555;-66
2022/01/13 08:30:12;;;;;;;55.03;20.27;;;4.50;99.90;;;;;;5073158;28;20184;-66
2022/01/13 08:32:38;;;;;;;59.77;19.40;;;4.20;99.90;;;;;;5092284;28;20188;-66
2022/01/13 08:35:05;;;;;;;51.13;20.33;;;4.50;99.90;;;;;;5074019;28;20176;-66
2022/01/13 08:37:32;;;;;;;48.40;21.07;;;4.50;99.90;;;;;;5073563;28;20181;-66
2022/01/13 08:40:00;;;;;;;45.90;18.67;;;4.70;99.90;;;;;;5063745;28;20192;-67
2022/01/13 08:42:25;;;;;;;63.47;24.67;;;4.80;99.90;;;;;;5073618;28;20180;-67
2022/01/13 08:44:51;;;;;;;63.23;24.47;;;4.80;99.90;;;;;;5060189;28;20234;-66
2022/01/13 08:47:17;;;;;;;48.57;18.67;;;4.80;99.90;;;;;;5073863;28;20672;-66
2022/01/13 08:49:43;;;;;;;59.13;23.03;;;4.70;99.90;;;;;;5057552;28;20192;-66
2022/01/13 08:52:09;;;;;;;52.17;21.53;;;4.70;99.90;;;;;;5072848;28;20186;-66
2022/01/13 08:54:34;;;;;;;50.30;20.60;;;4.70;99.90;;;;;;5089401;28;20188;-66
2022/01/13 08:57:01;;;;;;;52.73;22.00;;;4.60;99.90;;;;;;5091805;28;20189;-66
2022/01/13 08:59:28;;;;;;;63.17;25.77;;;4.60;99.90;;;;;;5091796;28;20633;-66
2022/01/13 09:01:54;;;;;;;51.77;22.43;;;4.70;99.90;;;;;;5074365;28;20188;-67
2022/01/13 09:04:20;;;;;;;60.00;23.17;;;4.80;99.90;;;;;;5074256;28;20189;-66
2022/01/13 09:06:46;;;;;;;56.10;21.83;;;4.70;99.90;;;;;;5076030;28;20193;-66
2022/01/13 09:09:14;;;;;;;51.23;21.47;;;4.70;99.90;;;;;;5089010;28;20185;-66
2022/01/13 09:11:41;;;;;;;42.57;19.60;;;4.60;99.90;;;;;;5062244;28;20201;-66
2022/01/13 09:14:07;;;;;;;53.77;21.73;;;4.50;99.90;;;;;;5063693;28;20207;-66
2022/01/13 09:16:41;;;;;;;49.67;20.70;;;4.60;99.90;;;;;;5086804;28;20185;-66
2022/01/13 09:19:12;;;;;;;53.97;20.30;;;4.90;99.90;;;;;;5064442;28;20187;-66
2022/01/13 09:21:40;;;;;;;52.23;20.90;;;5.20;99.90;;;;;;5073833;28;20189;-69
2022/01/13 09:24:11;;;;;;;45.90;19.47;;;5.30;99.90;;;;;;5092276;28;20226;-67
2022/01/13 09:26:37;;;;;;;51.50;20.97;;;5.10;99.90;;;;;;5085210;28;20657;-66
2022/01/13 09:29:05;;;;;;;49.30;19.73;;;5.00;99.90;;;;;;5059744;28;20212;-66
2022/01/13 09:31:32;;;;;;;44.13;20.03;;;5.10;99.90;;;;;;5073021;28;20255;-66
2022/01/13 09:34:00;;;;;;;59.67;23.23;;;5.30;99.90;;;;;;5090560;28;20188;-73
2022/01/13 09:36:29;;;;;;;54.40;20.10;;;5.50;99.90;;;;;;5061746;28;20283;-66
2022/01/13 09:38:56;;;;;;;55.63;23.10;;;5.70;99.90;;;;;;5062395;28;20675;-66
2022/01/13 09:41:24;;;;;;;61.13;26.17;;;5.70;99.90;;;;;;5095186;28;20173;-66
2022/01/13 09:43:51;;;;;;;52.83;21.73;;;5.50;99.90;;;;;;5095099;28;20192;-66
2022/01/13 09:46:17;;;;;;;56.40;22.60;;;5.50;99.90;;;;;;5093212;28;20224;-67
2022/01/13 09:48:44;;;;;;;53.47;21.23;;;5.50;99.90;;;;;;5082570;28;20268;-66
2022/01/13 09:51:10;;;;;;;52.53;22.53;;;5.40;99.90;;;;;;5089827;28;20185;-66
2022/01/13 09:53:36;;;;;;;52.40;21.67;;;5.40;99.90;;;;;;5058806;28;20638;-66
2022/01/13 09:56:03;;;;;;;53.13;22.73;;;5.50;99.90;;;;;;5065597;28;20230;-66
2022/01/13 09:58:29;;;;;;;53.00;20.97;;;5.50;99.90;;;;;;5093308;28;20180;-66
2022/01/13 10:00:56;;;;;;;55.03;22.60;;;5.50;99.90;;;;;;5064165;28;20185;-66
2022/01/13 10:03:26;;;;;;;50.93;22.33;;;5.50;99.90;;;;;;5062632;28;20290;-66
2022/01/13 10:05:53;;;;;;;48.60;20.87;;;5.60;99.90;;;;;;5095187;28;21219;-67
2022/01/13 10:08:23;;;;;;;47.63;19.73;;;5.60;99.90;;;;;;5077658;28;20187;-66
2022/01/13 10:10:49;;;;;;;44.73;19.37;;;5.80;99.90;;;;;;5094795;28;20253;-67
2022/01/13 10:13:23;;;;;;;53.23;21.27;;;6.00;99.90;;;;;;5095329;28;20196;-69
2022/01/13 10:18:45;;;;;;;56.73;22.87;;;6.20;99.90;;;;;;5091927;28;20205;-64
2022/01/13 10:21:16;;;;;;;56.10;21.07;;;6.30;99.90;;;;;;5066186;28;20227;-65
2022/01/13 10:24:09;;;;;;;56.13;23.93;;;6.40;99.90;;;;;;5093877;28;20661;-64
2022/01/13 10:26:36;;;;;;;54.23;21.93;;;6.20;99.90;;;;;;5096005;28;20318;-64
2022/01/13 10:29:05;;;;;;;55.63;23.17;;;6.20;99.90;;;;;;5066648;28;20224;-65
2022/01/13 10:31:51;;;;;;;51.17;22.47;;;6.00;99.90;;;;;;5086479;28;20180;-64
2022/01/13 10:34:18;;;;;;;51.40;19.40;;;6.10;99.90;;;;;;5059893;28;20195;-64
2022/01/13 10:37:04;;;;;;;46.27;18.53;;;6.10;99.90;;;;;;5089389;28;20193;-65
2022/01/13 10:39:51;;;;;;;39.53;19.13;;;6.10;99.90;;;;;;5089310;28;20199;-65
2022/01/13 10:45:00;;;;;;;43.57;18.87;;;6.10;99.90;;;;;;5075041;28;20209;-66
2022/01/13 10:47:27;;;;;;;46.50;18.93;;;6.00;99.90;;;;;;5057389;28;20178;-65
2022/01/13 10:50:17;;;;;;;40.43;18.83;;;6.20;99.90;;;;;;5057263;28;20691;-65
2022/01/13 10:52:43;;;;;;;45.70;20.37;;;6.40;99.90;;;;;;5089370;28;20177;-65
2022/01/13 10:55:16;;;;;;;51.63;21.67;;;6.60;99.90;;;;;;5093296;28;20195;-65
2022/01/13 10:57:43;;;;;;;55.43;23.03;;;6.70;99.90;;;;;;5078102;28;20276;-65
2022/01/13 11:00:17;;;;;;;42.63;21.13;;;6.90;99.90;;;;;;5083060;28;20535;-65
2022/01/13 11:03:14;;;;;;;44.00;20.03;;;6.70;99.90;;;;;;5075164;28;20173;-66
2022/01/13 11:05:48;;;;;;;48.13;19.20;;;6.60;99.90;;;;;;5070987;28;20209;-66
2022/01/13 11:08:30;;;;;;;44.30;18.70;;;6.60;99.90;;;;;;5094342;28;20352;-67
2022/01/13 11:11:00;;;;;;;39.27;18.33;;;6.60;99.90;;;;;;5093796;28;20200;-66
2022/01/13 11:13:28;;;;;;;45.80;17.30;;;6.70;99.90;;;;;;5094042;28;20181;-66
2022/01/13 11:15:57;;;;;;;41.50;19.20;;;6.90;99.90;;;;;;5075960;28;20266;-66
2022/01/13 11:18:29;;;;;;;45.97;21.20;;;6.90;99.90;;;;;;5075454;28;20177;-66
2022/01/13 11:20:56;;;;;;;49.10;20.87;;;6.90;99.90;;;;;;5070176;28;20547;-66
2022/01/13 11:23:23;;;;;;;54.47;19.13;;;6.80;99.90;;;;;;5074763;28;20185;-66
2022/01/13 11:25:52;;;;;;;45.93;20.63;;;6.90;99.90;;;;;;5072346;28;20672;-67
2022/01/13 11:28:19;;;;;;;40.33;18.13;;;6.90;99.90;;;;;;5093641;28;20195;-66
2022/01/13 11:30:46;;;;;;;45.47;18.77;;;7.00;99.90;;;;;;5060307;28;20346;-66
2022/01/13 11:33:12;;;;;;;49.17;18.17;;;7.10;99.90;;;;;;5059014;28;20189;-66
2022/01/13 11:35:45;;;;;;;41.57;17.53;;;7.20;99.90;;;;;;5094091;28;20184;-67
2022/01/13 11:38:15;;;;;;;42.97;16.97;;;7.10;99.90;;;;;;5074041;28;20187;-67
2022/01/13 11:40:44;;;;;;;39.03;17.83;;;7.00;99.90;;;;;;5077237;28;20307;-67
2022/01/13 11:43:22;;;;;;;41.53;18.90;;;6.90;99.90;;;;;;5078387;28;20205;-67
2022/01/13 11:45:48;;;;;;;41.40;17.00;;;7.00;99.90;;;;;;5074135;28;20669;-66
2022/01/13 11:48:21;;;;;;;37.27;16.37;;;7.20;99.90;;;;;;5031781;28;20195;-67
2022/01/13 11:50:50;;;;;;;42.77;15.37;;;7.20;99.90;;;;;;5090698;28;20672;-66
2022/01/13 11:53:25;;;;;;;38.83;16.40;;;7.30;99.90;;;;;;5058205;28;20199;-67
2022/01/13 11:55:57;;;;;;;37.83;17.53;;;7.40;99.90;;;;;;5085479;28;20189;-66
2022/01/13 11:58:31;;;;;;;39.60;17.67;;;7.50;99.90;;;;;;5077980;28;20653;-66
2022/01/13 12:01:17;;;;;;;39.53;17.27;;;7.50;99.90;;;;;;5077960;28;20234;-67
2022/01/13 12:03:46;;;;;;;43.27;18.40;;;7.50;99.90;;;;;;5072211;28;20181;-67
2022/01/13 12:06:31;;;;;;;33.57;18.80;;;7.60;99.90;;;;;;5089827;28;20295;-67
2022/01/13 12:08:58;;;;;;;37.50;17.70;;;7.70;99.90;;;;;;5080919;28;20217;-67
2022/01/13 12:11:41;;;;;;;39.07;16.83;;;7.50;99.90;;;;;;5092797;28;20280;-67
2022/01/13 12:14:25;;;;;;;46.40;20.57;;;7.60;99.90;;;;;;5087741;28;20212;-67
2022/01/13 12:16:55;;;;;;;42.37;19.17;;;7.80;99.90;;;;;;5084258;28;20183;-71
2022/01/13 12:19:38;;;;;;;36.97;18.87;;;7.60;99.90;;;;;;5068257;28;20169;-66
2022/01/13 12:22:10;;;;;;;39.80;17.77;;;7.70;99.90;;;;;;5072821;28;20183;-67
2022/01/13 12:24:46;;;;;;;40.30;16.50;;;7.80;99.90;;;;;;5054290;28;20209;-67
2022/01/13 12:27:12;;;;;;;43.53;16.93;;;7.90;99.90;;;;;;5074454;28;20319;-67
2022/01/13 12:29:47;;;;;;;41.37;16.13;;;7.80;99.90;;;;;;5074641;28;20564;-70
2022/01/13 12:32:18;;;;;;;34.33;17.33;;;7.40;99.90;;;;;;5081949;28;20325;-69
2022/01/13 12:34:50;;;;;;;38.80;16.77;;;7.40;99.90;;;;;;5092934;28;20183;-67
2022/01/13 12:37:17;;;;;;;44.47;18.67;;;7.70;99.90;;;;;;5057979;28;20234;-67
2022/01/13 12:39:47;;;;;;;39.50;17.97;;;7.70;99.90;;;;;;5073750;28;20192;-67
2022/01/13 12:42:19;;;;;;;39.17;18.80;;;8.00;99.90;;;;;;5073031;28;20686;-67
2022/01/13 12:47:30;;;;;;;38.83;16.47;;;8.10;99.90;;;;;;5092518;28;20238;-66
2022/01/13 12:49:56;;;;;;;28.97;13.43;;;8.10;99.90;;;;;;5058124;28;20191;-67
2022/01/13 12:52:24;;;;;;;31.90;16.77;;;8.00;99.90;;;;;;5069356;28;20184;-68
2022/01/13 12:54:51;;;;;;;34.23;14.60;;;7.90;99.90;;;;;;5068610;28;20276;-69
2022/01/13 12:57:17;;;;;;;35.67;16.13;;;8.00;99.90;;;;;;5060411;28;20185;-67
2022/01/13 12:59:44;;;;;;;37.47;16.13;;;8.00;99.90;;;;;;5091945;28;20237;-67
2022/01/13 13:02:10;;;;;;;31.87;15.53;;;7.90;99.90;;;;;;5073030;28;20334;-67
2022/01/13 13:04:37;;;;;;;40.97;17.07;;;7.70;99.90;;;;;;5092162;28;22146;-67
2022/01/13 13:07:03;;;;;;;37.47;16.60;;;7.80;99.90;;;;;;5092122;28;20181;-67
2022/01/13 13:09:30;;;;;;;31.90;14.97;;;7.90;99.90;;;;;;5076394;28;20192;-66
2022/01/13 13:12:02;;;;;;;41.60;15.37;;;7.70;99.90;;;;;;5077410;28;20526;-67
2022/01/13 13:17:33;;;;;;;37.57;13.83;;;7.80;99.90;;;;;;5083702;28;20604;-67
2022/01/13 13:20:00;;;;;;;34.83;15.10;;;7.80;99.90;;;;;;5095435;28;20183;-67